Contact Us:
Email: info@sawbill.com
Phone: (218)663-7150
Fax: (218)663-7980
Mail: 4620 Sawbill Trail
Box 2129
Tofte, MN 55615


Powered by
Movable Type 3.15
 
Sawbill Weather History Archives: April 2012
Current Sawbill Weather History | « March 2012 | May 2012 »


Date

High
Temperature

Low
Temperature

Barometric
Pressure

Relative
Humidity 7AM

9 AM
Temperature

Moisture

Snow

4/30/12 47 34 29.97 85% 37 0
4/29/12 56 28 29.97 61% 35 Trace
4/28/12 50 26 30.36 53% 28 0
4/27/12 48 27 30.33 40% 33 0
4/26/12 51 26 30.36 64% 27 0
4/25/12 47 28 30.15 66% 28 .05" Trace
4/24/12 56 37 29.85 56% 41 0
4/23/12 54 30 29.91 82% 37 0
4/22/12 49 22 30.18 62% 30 Trace Trace
4/21/12 48 25 30.33 62% 38 Trace Trace
4/20/12 44 30 30.16 90% 32 0
4/19/12 46 27 30.15 77% 29 0
4/18/12 38 32 30.18 79% 32 Trace Trace
4/17/12 37 16 29.91 98% 35 .24"
4/16/12 24 11 30.33 81% 15 .04" .5"
4/15/12 46 21 29.68 86% 21 1.64" 1"
4/14/12 54 38 29.83 74% 46 0
4/13/12 56 33 29.80 97% 44 .07"
4/12/12 49 26 30.21 68% 33 0
4/11/12 37 25 30.27 52% 26 0
4/10/12 37 25 30.45 58% 31 0
4/9/12 33 24 30.21 56% 26 Trace Trace
4/8/12 54 29 30.00 75% 30 .03" Trace
4/7/12 59 32 29.92 98% 32 .18"
4/6/12 51 27 30.21 67% 30 0
4/5/12 46 24 30.39 62% 27 0
4/4/12 52 25 30.30 72% 27 0
4/3/12 53 33 30.21 65% 33 0
4/2/12 47 36 30.15 98% 39 .24
4/1/12 53 34 30.03 85% 36 0
 


Home I Trip Planning I Rentals and Outfitting I Reservations I Campgrounds I Sawbill Store I Sawbill News I Contact

© 1997 - 2017, Sawbill Canoe Outfitters, Inc. I Privacy Policy